createdAt,value
2017-11-18T00:00:51.754Z,29.93
2017-11-18T00:03:19.319Z,30.10
2017-11-18T00:05:47.654Z,28.90
2017-11-18T00:08:15.246Z,31.30
2017-11-18T00:10:42.806Z,30.40
2017-11-18T00:13:10.374Z,30.60
2017-11-18T00:15:38.720Z,29.37
2017-11-18T00:18:06.275Z,30.53
2017-11-18T00:20:33.830Z,28.33
2017-11-18T00:23:01.384Z,33.37
2017-11-18T00:25:28.956Z,30.27
2017-11-18T00:27:56.518Z,28.57
2017-11-18T00:30:24.080Z,30.50
2017-11-18T00:32:52.408Z,28.70
2017-11-18T00:35:20.746Z,30.37
2017-11-18T00:37:48.361Z,27.87
2017-11-18T00:40:15.930Z,29.23
2017-11-18T00:42:43.501Z,30.57
2017-11-18T00:45:11.060Z,28.43
2017-11-18T00:47:38.651Z,30.03
2017-11-18T00:50:06.223Z,28.67
2017-11-18T00:52:33.793Z,28.60
2017-11-18T00:55:01.349Z,30.03
2017-11-18T00:57:28.920Z,30.20
2017-11-18T00:59:57.269Z,29.98
2017-11-18T01:02:24.910Z,30.05
2017-11-18T01:04:52.484Z,28.70
2017-11-18T01:07:20.047Z,29.43
2017-11-18T01:09:47.647Z,29.50
2017-11-18T01:12:15.966Z,29.43
2017-11-18T01:14:43.544Z,29.87
2017-11-18T01:17:11.109Z,28.15
2017-11-18T01:19:38.705Z,28.90
2017-11-18T01:22:07.027Z,27.15
2017-11-18T01:24:34.610Z,28.30
2017-11-18T01:27:02.169Z,28.73
2017-11-18T01:29:29.729Z,27.75
2017-11-18T01:31:57.371Z,28.63
2017-11-18T01:34:24.916Z,28.90
2017-11-18T01:36:52.506Z,28.57
2017-11-18T01:39:20.099Z,29.90
2017-11-18T01:41:47.671Z,29.77
2017-11-18T01:44:16.010Z,29.67
2017-11-18T01:46:43.589Z,28.20
2017-11-18T01:49:11.185Z,27.90
2017-11-18T01:51:38.725Z,27.40
2017-11-18T01:54:07.089Z,27.92
2017-11-18T01:56:35.435Z,27.40
2017-11-18T01:59:02.985Z,29.17
2017-11-18T02:01:30.590Z,30.20
2017-11-18T02:03:58.135Z,30.77
2017-11-18T02:06:26.559Z,29.75
2017-11-18T02:08:54.898Z,29.92
2017-11-18T02:11:22.495Z,28.97
2017-11-18T02:13:50.842Z,29.50
2017-11-18T02:16:18.412Z,28.45
2017-11-18T02:18:45.979Z,28.52
2017-11-18T02:21:14.327Z,26.85
2017-11-18T02:23:42.673Z,28.45
2017-11-18T02:26:10.278Z,28.70
2017-11-18T02:28:37.832Z,28.62
2017-11-18T02:31:05.426Z,29.65
2017-11-18T02:33:33.949Z,29.10
2017-11-18T02:36:01.599Z,29.58
2017-11-18T02:38:29.208Z,28.00
2017-11-18T02:40:56.787Z,29.60
2017-11-18T02:43:25.137Z,28.83
2017-11-18T02:45:52.759Z,31.00
2017-11-18T02:48:20.333Z,28.67
2017-11-18T02:50:47.956Z,27.10
2017-11-18T02:53:16.306Z,27.75
2017-11-18T02:55:43.929Z,28.40
2017-11-18T02:58:11.500Z,27.42
2017-11-18T03:00:39.838Z,27.60
2017-11-18T03:03:08.187Z,29.40
2017-11-18T03:05:35.773Z,27.00
2017-11-18T03:08:03.348Z,27.30
2017-11-18T03:10:30.961Z,28.30
2017-11-18T03:12:58.545Z,27.23
2017-11-18T03:15:26.128Z,29.45
2017-11-18T03:17:53.715Z,28.40
2017-11-18T03:20:21.277Z,27.58
2017-11-18T03:22:48.840Z,28.50
2017-11-18T03:25:16.415Z,30.42
2017-11-18T03:27:43.982Z,27.95
2017-11-18T03:30:11.578Z,28.70
2017-11-18T03:32:39.928Z,26.87
2017-11-18T03:35:07.495Z,28.70
2017-11-18T03:37:35.838Z,28.90
2017-11-18T03:40:03.440Z,29.35
2017-11-18T03:42:31.019Z,28.40
2017-11-18T03:44:58.610Z,29.30
2017-11-18T03:47:26.962Z,28.05
2017-11-18T03:49:54.513Z,30.70
2017-11-18T03:52:22.063Z,30.40
2017-11-18T03:54:49.625Z,29.20
2017-11-18T03:57:17.219Z,29.63
2017-11-18T03:59:44.811Z,29.70
2017-11-18T04:02:13.137Z,30.88
2017-11-18T04:04:40.716Z,32.20
2017-11-18T04:07:08.285Z,31.23
2017-11-18T04:09:35.867Z,30.45
2017-11-18T04:12:04.185Z,30.05
2017-11-18T04:14:31.779Z,32.28
2017-11-18T04:16:59.343Z,32.35
2017-11-18T04:19:26.929Z,32.92
2017-11-18T04:21:55.246Z,30.40
2017-11-18T04:24:22.840Z,32.15
2017-11-18T04:26:50.441Z,32.92
2017-11-18T04:29:18.010Z,33.13
2017-11-18T04:31:45.559Z,32.80
2017-11-18T04:34:13.140Z,31.15
2017-11-18T04:36:40.708Z,31.37
2017-11-18T04:39:08.278Z,30.80
2017-11-18T04:41:35.866Z,30.98
2017-11-18T04:44:03.475Z,31.33
2017-11-18T04:46:31.067Z,30.02
2017-11-18T04:48:58.644Z,30.42
2017-11-18T04:51:26.236Z,30.33
2017-11-18T04:53:54.572Z,30.05
2017-11-18T04:56:22.128Z,30.80
2017-11-18T04:58:49.725Z,31.17
2017-11-18T05:01:18.059Z,30.00
2017-11-18T05:03:45.630Z,29.70
2017-11-18T05:06:13.199Z,30.75
2017-11-18T05:08:40.818Z,29.85
2017-11-18T05:11:08.372Z,30.20
2017-11-18T05:13:35.950Z,30.27
2017-11-18T05:16:03.556Z,30.35
2017-11-18T05:18:31.162Z,30.10
2017-11-18T05:20:58.756Z,31.15
2017-11-18T05:23:26.302Z,30.75
2017-11-18T05:25:53.870Z,29.67
2017-11-18T05:28:21.450Z,28.73
2017-11-18T05:30:49.014Z,30.30
2017-11-18T05:33:16.604Z,29.80
2017-11-18T05:35:44.930Z,28.60
2017-11-18T05:38:12.542Z,29.95
2017-11-18T05:40:40.867Z,28.58
2017-11-18T05:43:08.436Z,28.73
2017-11-18T05:45:35.990Z,27.87
2017-11-18T05:48:03.560Z,29.67
2017-11-18T05:50:31.117Z,30.30
2017-11-18T05:52:58.718Z,29.23
2017-11-18T05:55:27.048Z,29.00
2017-11-18T05:57:54.696Z,28.07
2017-11-18T06:00:22.267Z,29.73
2017-11-18T06:02:49.836Z,28.58
2017-11-18T06:05:17.419Z,30.02
2017-11-18T06:07:44.988Z,28.75
2017-11-18T06:10:13.324Z,29.30
2017-11-18T06:12:40.907Z,28.23
2017-11-18T06:15:08.476Z,27.62
2017-11-18T06:17:36.079Z,28.30
2017-11-18T06:20:03.660Z,26.17
2017-11-18T06:22:31.229Z,26.75
2017-11-18T06:24:58.789Z,26.05
2017-11-18T06:27:26.403Z,28.70
2017-11-18T06:29:54.727Z,26.87
2017-11-18T06:32:22.379Z,27.48
2017-11-18T06:34:49.951Z,27.40
2017-11-18T06:37:17.527Z,27.65
2017-11-18T06:39:45.090Z,29.00
2017-11-18T06:42:12.639Z,28.70
2017-11-18T06:44:40.236Z,29.85
2017-11-18T06:47:08.556Z,28.80
2017-11-18T06:49:36.121Z,28.60
2017-11-18T06:52:03.781Z,26.80
2017-11-18T06:54:32.120Z,27.65
2017-11-18T06:57:00.455Z,28.17
2017-11-18T06:59:28.100Z,28.17
2017-11-18T07:01:55.686Z,28.00
2017-11-18T07:04:23.254Z,27.35
2017-11-18T07:06:50.833Z,27.65
2017-11-18T07:09:19.170Z,35.25
2017-11-18T07:11:46.752Z,37.08
2017-11-18T07:14:14.317Z,31.35
2017-11-18T07:16:41.884Z,29.17
2017-11-18T07:19:09.465Z,29.42
2017-11-18T07:21:37.786Z,28.73
2017-11-18T07:24:05.376Z,30.95
2017-11-18T07:26:33.031Z,31.40
2017-11-18T07:29:00.649Z,31.30
2017-11-18T07:31:28.937Z,34.17
2017-11-18T07:33:56.484Z,29.52
2017-11-18T07:36:24.070Z,29.10
2017-11-18T07:38:52.392Z,27.17
2017-11-18T07:41:21.253Z,28.92
2017-11-18T07:43:48.854Z,29.87
2017-11-18T07:46:16.809Z,30.40
2017-11-18T07:48:44.486Z,30.30
2017-11-18T07:51:12.093Z,31.00
2017-11-18T07:53:39.655Z,32.40
2017-11-18T07:56:07.206Z,32.22
2017-11-18T07:58:34.800Z,31.50
2017-11-18T08:01:02.415Z,30.60
2017-11-18T08:03:30.005Z,32.00
2017-11-18T08:05:58.365Z,36.65
2017-11-18T08:08:25.929Z,35.45
2017-11-18T08:10:53.483Z,37.70
2017-11-18T08:13:21.068Z,36.77
2017-11-18T08:15:49.385Z,33.08
2017-11-18T08:18:16.969Z,33.25
2017-11-18T08:20:44.534Z,49.97
2017-11-18T08:23:12.119Z,44.20
2017-11-18T08:25:40.471Z,57.30
2017-11-18T08:28:08.036Z,39.90
2017-11-18T08:30:35.882Z,32.33
2017-11-18T08:33:03.436Z,32.30
2017-11-18T08:35:31.017Z,36.35
2017-11-18T08:37:58.588Z,31.65
2017-11-18T08:40:26.158Z,28.00
2017-11-18T08:42:54.512Z,28.00
2017-11-18T08:45:22.108Z,29.12
2017-11-18T08:47:50.469Z,29.90
2017-11-18T08:50:18.056Z,33.20
2017-11-18T08:52:46.425Z,30.10
2017-11-18T08:55:14.771Z,31.20
2017-11-18T08:57:43.124Z,27.80
2017-11-18T09:00:10.728Z,30.20
2017-11-18T09:02:38.325Z,30.00
2017-11-18T09:05:05.921Z,30.10
2017-11-18T09:07:33.515Z,29.23
2017-11-18T09:10:01.101Z,33.13
2017-11-18T09:12:28.702Z,34.72
2017-11-18T09:14:56.293Z,28.60
2017-11-18T09:17:23.855Z,29.60
2017-11-18T09:19:51.407Z,29.23
2017-11-18T09:22:19.001Z,28.13
2017-11-18T09:24:46.578Z,29.17
2017-11-18T09:27:14.147Z,27.30
2017-11-18T09:29:41.706Z,28.20
2017-11-18T09:32:09.280Z,27.47
2017-11-18T09:34:36.853Z,27.20
2017-11-18T09:37:04.423Z,26.35
2017-11-18T09:39:31.985Z,27.10
2017-11-18T09:41:59.605Z,25.50
2017-11-18T09:44:28.377Z,23.05
2017-11-18T09:46:56.771Z,24.93
2017-11-18T09:49:24.350Z,25.17
2017-11-18T09:51:51.952Z,24.27
2017-11-18T09:54:19.559Z,24.58
2017-11-18T09:56:47.110Z,25.07
2017-11-18T09:59:15.648Z,24.33
2017-11-18T10:01:43.234Z,24.90
2017-11-18T10:04:11.589Z,25.80
2017-11-18T10:06:39.170Z,23.13
2017-11-18T10:09:07.514Z,25.70
2017-11-18T10:11:35.965Z,30.50
2017-11-18T10:14:03.544Z,26.23
2017-11-18T10:16:31.123Z,23.50
2017-11-18T10:18:58.686Z,25.10
2017-11-18T10:21:26.240Z,24.10
2017-11-18T10:23:53.804Z,23.17
2017-11-18T10:26:21.359Z,24.13
2017-11-18T10:28:48.930Z,25.17
2017-11-18T10:31:16.493Z,24.27
2017-11-18T10:33:44.069Z,23.10
2017-11-18T10:36:12.411Z,24.63
2017-11-18T10:38:39.958Z,22.27
2017-11-18T10:41:07.531Z,21.23
2017-11-18T10:43:35.095Z,22.00
2017-11-18T10:46:02.666Z,20.80
2017-11-18T10:48:30.218Z,22.97
2017-11-18T10:50:57.832Z,21.43
2017-11-18T10:53:25.414Z,22.57
2017-11-18T10:55:53.010Z,21.77
2017-11-18T10:58:20.585Z,20.40
2017-11-18T11:00:48.933Z,19.70
2017-11-18T11:03:16.525Z,18.73
2017-11-18T11:05:44.880Z,17.03
2017-11-18T11:08:12.491Z,16.13
2017-11-18T11:10:40.076Z,16.60
2017-11-18T11:13:07.656Z,16.70
2017-11-18T11:15:43.140Z,16.70
2017-11-18T11:18:10.754Z,15.73
2017-11-18T11:20:38.327Z,15.70
2017-11-18T11:23:05.909Z,16.00
2017-11-18T11:25:34.246Z,16.40
2017-11-18T11:28:01.815Z,15.20
2017-11-18T11:30:29.414Z,15.53
2017-11-18T11:32:57.738Z,14.80
2017-11-18T11:35:25.323Z,15.90
2017-11-18T11:37:52.958Z,15.83
2017-11-18T11:40:20.515Z,15.40
2017-11-18T11:42:48.067Z,13.50
2017-11-18T11:45:15.648Z,13.67
2017-11-18T11:47:43.201Z,12.63
2017-11-18T11:50:10.773Z,13.10
2017-11-18T11:52:38.414Z,11.53
2017-11-18T11:55:05.985Z,11.00
2017-11-18T11:57:33.544Z,11.90
2017-11-18T12:00:01.115Z,10.77
2017-11-18T12:02:28.669Z,9.30
2017-11-18T12:04:56.226Z,9.30
2017-11-18T12:07:23.853Z,8.50
2017-11-18T12:09:51.422Z,8.90
2017-11-18T12:12:19.002Z,8.90
2017-11-18T12:14:46.551Z,8.50
2017-11-18T12:17:14.162Z,8.80
2017-11-18T12:19:41.738Z,7.30
2017-11-18T12:22:10.085Z,7.70
2017-11-18T12:24:37.662Z,8.60
2017-11-18T12:27:06.742Z,8.13
2017-11-18T12:29:34.348Z,8.30
2017-11-18T12:32:01.940Z,7.83
2017-11-18T12:34:29.514Z,7.83
2017-11-18T12:36:57.072Z,8.00
2017-11-18T12:39:24.673Z,8.10
2017-11-18T12:41:53.023Z,7.90
2017-11-18T12:44:20.624Z,8.40
2017-11-18T12:46:48.941Z,7.70
2017-11-18T12:49:16.548Z,8.27
2017-11-18T12:51:45.043Z,7.67
2017-11-18T12:54:13.402Z,9.13
2017-11-18T12:56:40.967Z,7.97
2017-11-18T12:59:09.328Z,8.10
2017-11-18T13:01:36.936Z,7.33
2017-11-18T13:04:04.514Z,8.00
2017-11-18T13:06:32.100Z,9.07
2017-11-18T13:08:59.902Z,8.60
2017-11-18T13:11:27.513Z,8.00
2017-11-18T13:13:55.083Z,8.10
2017-11-18T13:16:22.652Z,8.00
2017-11-18T13:18:52.299Z,7.70
2017-11-18T13:21:20.633Z,7.30
2017-11-18T13:23:48.182Z,8.50
2017-11-18T13:26:15.769Z,8.60
2017-11-18T13:28:43.328Z,10.50
2017-11-18T13:31:10.924Z,15.03
2017-11-18T13:33:39.241Z,9.17
2017-11-18T13:36:06.823Z,7.77
2017-11-18T13:38:34.406Z,8.83
2017-11-18T13:41:02.030Z,8.67
2017-11-18T13:43:29.633Z,8.20
2017-11-18T13:45:57.228Z,8.57
2017-11-18T13:48:24.799Z,9.80
2017-11-18T13:50:53.114Z,8.43
2017-11-18T13:53:20.698Z,8.50
2017-11-18T13:55:48.316Z,9.20
2017-11-18T13:58:15.899Z,8.97
2017-11-18T14:00:44.307Z,9.70
2017-11-18T14:03:11.881Z,9.90
2017-11-18T14:05:39.477Z,9.15
2017-11-18T14:08:07.818Z,9.40
2017-11-18T14:10:35.404Z,9.17
2017-11-18T14:13:03.758Z,9.02
2017-11-18T14:15:31.365Z,9.37
2017-11-18T14:17:58.963Z,14.70
2017-11-18T14:20:26.563Z,9.40
2017-11-18T14:22:54.928Z,8.63
2017-11-18T14:25:22.502Z,9.93
2017-11-18T14:27:50.839Z,9.50
2017-11-18T14:30:18.447Z,9.30
2017-11-18T14:32:46.790Z,9.90
2017-11-18T14:35:15.163Z,9.40
2017-11-18T14:37:42.751Z,10.87
2017-11-18T14:40:10.337Z,10.63
2017-11-18T14:42:38.715Z,10.20
2017-11-18T14:45:06.316Z,9.93
2017-11-18T14:47:33.897Z,9.97
2017-11-18T14:50:01.510Z,10.98
2017-11-18T14:52:29.119Z,11.32
2017-11-18T14:54:56.798Z,17.90
2017-11-18T14:57:24.379Z,25.70
2017-11-18T14:59:52.035Z,18.55
2017-11-18T15:02:20.406Z,17.50
2017-11-18T15:04:48.805Z,28.75
2017-11-18T15:07:16.437Z,21.98
2017-11-18T15:09:44.153Z,22.62
2017-11-18T15:12:11.799Z,12.77
2017-11-18T15:14:45.123Z,13.80
2017-11-18T15:17:18.260Z,12.90
2017-11-18T15:19:52.361Z,11.60
2017-11-18T15:22:25.636Z,12.32
2017-11-18T15:24:59.020Z,14.07
2017-11-18T15:27:32.136Z,11.40
2017-11-18T15:30:16.539Z,12.20
2017-11-18T15:33:01.575Z,11.30
2017-11-18T15:35:31.687Z,10.25
2017-11-18T15:38:02.868Z,11.00
2017-11-18T15:40:31.223Z,10.60
2017-11-18T15:43:01.449Z,10.15
2017-11-18T15:45:29.827Z,10.73
2017-11-18T15:48:03.091Z,10.25
2017-11-18T15:50:36.300Z,8.90
2017-11-18T15:53:20.572Z,8.82
2017-11-18T15:55:53.836Z,9.70
2017-11-18T15:58:22.205Z,8.95
2017-11-18T16:00:55.409Z,9.05
2017-11-18T16:03:23.730Z,8.80
2017-11-18T16:05:52.092Z,10.10
2017-11-18T16:08:19.748Z,9.70
2017-11-18T16:10:47.346Z,9.45
2017-11-18T16:13:15.691Z,9.00
2017-11-18T16:15:43.269Z,10.20
2017-11-18T16:18:11.654Z,10.13
2017-11-18T16:20:40.041Z,10.27
2017-11-18T16:23:08.388Z,10.60
2017-11-18T16:25:35.979Z,10.05
2017-11-18T16:28:04.316Z,9.38
2017-11-18T16:30:31.901Z,11.73
2017-11-18T16:33:00.284Z,13.07
2017-11-18T16:35:28.652Z,13.93
2017-11-18T16:37:56.225Z,12.48
2017-11-18T16:40:23.812Z,14.00
2017-11-18T16:42:51.451Z,18.37
2017-11-18T16:45:19.023Z,11.70
2017-11-18T16:47:47.424Z,14.40
2017-11-18T16:50:15.001Z,19.35
2017-11-18T16:52:42.624Z,11.43
2017-11-18T16:55:10.241Z,10.73
2017-11-18T16:57:37.846Z,14.52
2017-11-18T17:00:06.209Z,12.80
2017-11-18T17:02:33.815Z,13.93
2017-11-18T17:05:01.425Z,14.80
2017-11-18T17:07:29.035Z,10.80
2017-11-18T17:09:56.620Z,14.27
2017-11-18T17:12:24.204Z,10.63
2017-11-18T17:14:51.839Z,12.80
2017-11-18T17:17:19.442Z,12.37
2017-11-18T17:19:47.852Z,10.13
2017-11-18T17:22:15.451Z,10.20
2017-11-18T17:24:43.071Z,11.65
2017-11-18T17:27:10.663Z,10.95
2017-11-18T17:29:38.252Z,10.80
2017-11-18T17:32:05.991Z,12.68
2017-11-18T17:34:33.582Z,12.13
2017-11-18T17:37:01.171Z,12.52
2017-11-18T17:39:28.766Z,14.55
2017-11-18T17:41:56.360Z,11.35
2017-11-18T17:44:23.981Z,10.82
2017-11-18T17:46:51.586Z,11.15
2017-11-18T17:49:19.337Z,11.32
2017-11-18T17:51:46.940Z,11.85
2017-11-18T17:54:14.569Z,11.80
2017-11-18T17:56:42.399Z,13.23
2017-11-18T17:59:10.163Z,12.00
2017-11-18T18:01:37.807Z,11.93
2017-11-18T18:04:05.411Z,11.40
2017-11-18T18:06:33.306Z,11.43
2017-11-18T18:09:01.986Z,11.48
2017-11-18T18:11:29.771Z,12.98
2017-11-18T18:13:58.144Z,12.85
2017-11-18T18:16:26.509Z,13.45
2017-11-18T18:18:54.936Z,14.95
2017-11-18T18:21:23.232Z,13.80
2017-11-18T18:23:51.318Z,13.62
2017-11-18T18:26:18.925Z,15.32
2017-11-18T18:28:46.536Z,15.20
2017-11-18T18:31:14.336Z,12.48
2017-11-18T18:33:42.979Z,14.77
2017-11-18T18:36:10.918Z,13.10
2017-11-18T18:38:38.480Z,15.85
2017-11-18T18:41:06.292Z,23.95
2017-11-18T18:43:34.705Z,16.58
2017-11-18T18:46:03.318Z,16.75
2017-11-18T18:48:31.164Z,14.13
2017-11-18T18:50:59.115Z,13.15
2017-11-18T18:53:26.819Z,16.85
2017-11-18T18:55:54.556Z,16.05
2017-11-18T18:58:23.048Z,15.38
2017-11-18T19:00:50.869Z,15.93
2017-11-18T19:03:18.647Z,13.60
2017-11-18T19:05:46.697Z,15.30
2017-11-18T19:08:14.691Z,13.80
2017-11-18T19:10:42.349Z,15.98
2017-11-18T19:13:10.634Z,12.98
2017-11-18T19:15:38.319Z,12.85
2017-11-18T19:18:05.971Z,13.05
2017-11-18T19:20:34.373Z,23.23
2017-11-18T19:23:01.948Z,17.37
2017-11-18T19:25:29.693Z,17.20
2017-11-18T19:27:57.745Z,23.40
2017-11-18T19:30:25.370Z,16.45
2017-11-18T19:32:52.986Z,13.88
2017-11-18T19:35:20.725Z,17.17
2017-11-18T19:37:49.001Z,17.42
2017-11-18T19:40:16.861Z,15.52
2017-11-18T19:42:45.236Z,13.20
2017-11-18T19:45:12.825Z,20.73
2017-11-18T19:47:41.208Z,12.00
2017-11-18T19:50:09.993Z,19.25
2017-11-18T19:52:38.023Z,14.15
2017-11-18T19:55:05.633Z,13.38
2017-11-18T19:57:33.974Z,12.93
2017-11-18T20:00:01.581Z,16.15
2017-11-18T20:02:29.146Z,14.70
2017-11-18T20:04:56.870Z,10.77
2017-11-18T20:07:24.489Z,13.40
2017-11-18T20:09:52.160Z,10.70
2017-11-18T20:12:19.869Z,37.55
2017-11-18T20:14:48.318Z,21.65
2017-11-18T20:17:15.940Z,12.65
2017-11-18T20:19:43.532Z,14.85
2017-11-18T20:22:11.299Z,14.82
2017-11-18T20:24:39.064Z,13.70
2017-11-18T20:27:06.673Z,11.48
2017-11-18T20:29:35.019Z,11.15
2017-11-18T20:32:02.731Z,9.85
2017-11-18T20:34:30.412Z,9.35
2017-11-18T20:36:58.117Z,10.57
2017-11-18T20:39:25.694Z,10.10
2017-11-18T20:41:53.374Z,9.32
2017-11-18T20:44:21.086Z,9.82
2017-11-18T20:46:48.787Z,10.60
2017-11-18T20:49:16.413Z,10.07
2017-11-18T20:51:44.011Z,10.30
2017-11-18T20:54:12.376Z,9.68
2017-11-18T20:56:39.998Z,10.27
2017-11-18T20:59:07.984Z,9.93
2017-11-18T21:01:36.603Z,11.00
2017-11-18T21:04:05.150Z,10.27
2017-11-18T21:06:32.759Z,10.65
2017-11-18T21:09:01.127Z,9.90
2017-11-18T21:11:28.700Z,10.57
2017-11-18T21:13:57.040Z,10.27
2017-11-18T21:16:24.616Z,10.55
2017-11-18T21:18:52.183Z,10.13
2017-11-18T21:21:19.773Z,10.10
2017-11-18T21:23:48.123Z,10.55
2017-11-18T21:26:15.723Z,9.90
2017-11-18T21:28:43.310Z,9.90
2017-11-18T21:31:10.890Z,11.23
2017-11-18T21:33:38.460Z,10.90
2017-11-18T21:36:06.053Z,11.25
2017-11-18T21:38:34.396Z,11.10
2017-11-18T21:41:01.999Z,9.95
2017-11-18T21:43:29.606Z,11.02
2017-11-18T21:45:57.214Z,10.85
2017-11-18T21:48:25.553Z,10.25
2017-11-18T21:50:53.103Z,10.02
2017-11-18T21:53:23.524Z,11.00
2017-11-18T21:55:51.096Z,10.25
2017-11-18T21:58:18.683Z,11.73
2017-11-18T22:00:47.046Z,11.20
2017-11-18T22:03:14.644Z,11.15
2017-11-18T22:05:42.979Z,11.00
2017-11-18T22:08:10.586Z,11.50
2017-11-18T22:10:38.940Z,11.80
2017-11-18T22:13:06.518Z,11.60
2017-11-18T22:15:34.846Z,9.88
2017-11-18T22:18:02.419Z,10.60
2017-11-18T22:20:29.998Z,10.63
2017-11-18T22:22:57.575Z,10.60
2017-11-18T22:25:27.694Z,10.65
2017-11-18T22:27:56.041Z,11.07
2017-11-18T22:30:23.721Z,10.40
2017-11-18T22:32:52.043Z,10.20
2017-11-18T22:35:19.662Z,10.32
2017-11-18T22:37:47.251Z,11.12
2017-11-18T22:40:14.805Z,10.35
2017-11-18T22:42:43.144Z,11.05
2017-11-18T22:45:10.710Z,10.55
2017-11-18T22:47:38.310Z,9.82
2017-11-18T22:50:06.636Z,11.60
2017-11-18T22:52:34.213Z,11.38
2017-11-18T22:55:01.793Z,11.15
2017-11-18T22:57:30.143Z,11.55
2017-11-18T22:59:57.757Z,11.60
2017-11-18T23:02:25.349Z,10.88
2017-11-18T23:04:52.946Z,10.30
2017-11-18T23:07:20.539Z,10.90
2017-11-18T23:09:48.859Z,10.55
2017-11-18T23:12:16.434Z,10.60
2017-11-18T23:14:44.015Z,12.00
2017-11-18T23:17:12.349Z,10.10
2017-11-18T23:19:39.902Z,11.50
2017-11-18T23:22:07.488Z,10.38
2017-11-18T23:24:35.066Z,10.60
2017-11-18T23:27:03.421Z,10.90
2017-11-18T23:29:31.004Z,10.65
2017-11-18T23:31:58.577Z,10.38
2017-11-18T23:34:26.936Z,11.02
2017-11-18T23:36:54.569Z,11.98
2017-11-18T23:39:22.239Z,11.25
2017-11-18T23:41:49.821Z,11.95
2017-11-18T23:44:17.372Z,11.82
2017-11-18T23:46:44.958Z,11.30
2017-11-18T23:49:13.961Z,12.52
2017-11-18T23:51:42.309Z,11.30
2017-11-18T23:54:09.949Z,12.02
2017-11-18T23:56:37.525Z,12.05
2017-11-18T23:59:05.065Z,13.50
